Language selection

Features

My Weather Profile Weather Topics  | 

West Coast Vancouver Island North: Past 24 Hour Conditions

 

North Hecate Strait - 46183

01:00 AM PST 27 November 2020Buoy position: 53.63N 131.1W
Disclaimer

This table is a summary of hourly weather conditions for the past 24 hours.
Please note that these observations might not always be representative of weather conditions over their associated marine area.

Date / Time
(PST)
Wind(knots) Wave height(m) Wave period(s) Pressure(kPa) Air tempC) Water tempC)
27 November 2020
1:00 ENE 6 gust 8 1.1 8.0 101.2 7 0
0:00 NE 6 gust 8 1.2 8.0 101.3 8 0
26 November 2020
23:00 N 6 gust 8 1.2 9.0 101.3 8 0
22:00 N 4 gust 6 1.2 8.0 101.4 8 0
21:00 NNW 2 gust 4 1.2 7.0 101.4 8 0
20:00 NW 4 gust 4 1.2 8.0 101.4 8 0
19:00 SSW 2 gust 2 1.2 8.0 101.5 8 0
18:00 W 2 gust 4 1.1 9.0 101.5 8 0
17:00 W 6 gust 8 1.2 8.0 101.5 8 0
16:00 W 8 gust 8 1.2 8.0 101.5 8 0
15:00 W 8 gust 12 1.4 9.0 101.5 8 0
14:00 W 10 gust 12 1.4 9.0 101.4 8 0
13:00 W 12 gust 13 1.6 8.0 101.4 8 0
12:00 WNW 13 gust 16 1.9 8.0 101.3 8 0
11:00 WNW 12 gust 16 1.8 8.0 101.3 8 0
10:00 WNW 13 gust 17 2.2 8.0 101.2 8 0
9:00 NW 16 gust 22 2.3 8.0 101.1 8 0
8:00 NW 19 gust 23 2.5 8.0 101.0 8 0
7:00 WSW 19 gust 27 3.5 8.0 100.8 9 0
6:00 SSE 27 gust 35 3.6 8.0 100.7 9 0
5:00 SSE 31 gust 39 3.7 7.0 100.7 9 0
4:00 SSE 33 gust 39 3.3 8.0 100.9 9 0
3:00 SSE 33 gust 41 3.3 7.0 101.0 9 0
2:00 SSE 31 gust 37 2.6 7.0 101.1 9 0
1:00 SSE 29 gust 35 2.5 6.0 101.3 9 0

Zoom-in to make a selection

Map of Pacific - North Coast marine weather areas Middle Nomad - 46004 South Nomad - 46036 Dixon Entrance Central - 46145 South Moresby - 46147 Nanakwa Shoal - 46181 North Hecate Strait - 46183 North Nomad - 46184 South Hecate Strait - 46185 West Sea Otter - 46204 West Dixon Entrance - 46205 East Dellwood - 46207 West Moresby - 46208 Sartine Island Cape St.James Kindakun Rocks Langara Island Masset Municipal Airport Rose Spit Sandspit Airport Bella Bella Airport Bella Coola Airport Bonilla Island Cathedral Point Cumshewa Island Grey Islet Holland Rock Lucy Islands Lightstation Prince Rupert Airport
Legend:
buoy Buoy
land station Land Station

Pacific - North Coast Area

Another Region

What we are doing

Features

Heading to Banff or Jasper National Parks this winter?

Go prepared with Highway 93 forecasts. North and South highway regions are available in the Alberta text forecast bulletin. (Photo by: Natalie Anderson)

Date modified: